Maersk Peary — WHKM — position and weather

sailwx.info

Track history (hours):
 
Tides and Currents Weather Stations Pressure Air Temp Water Temp Dewpoint Dewpoint Depression Visibility Wind Speed Wind Dir Waves Ship Positions

Maersk Peary

Owner: Maersk Line, Limited, Norfolk, VA. More information available from US FCC via Universal Licensing System and Coast Guard Vessel Documentation Center.

Last reported at 2016-Aug-25 03:34 UTC. Time now 2016-Aug-25 04:34 UTC.
Position N 51°16' E 001°48'.

Length 180 m; draft 8 m.

Type: Ship. MMSI: 368236000.

Date/timePositionNaut miles runAvg speedWind from/ knotsBaromVisibWave heightAir tempDewpointWater temp
2016-Aug-25 03:34N 51°16' E 001°48'1413.9
2016-Aug-25 02:34N 51°28' E 001°59'1615.5
2016-Aug-25 01:33N 51°40' E 002°15'5 8.2
2016-Aug-25 01:00N 51°36' E 002°12'2047.1 030 / 191016.0 5.4 0.516.012.4
2016-Aug-25 00:34N 51°55' E 002°25'1515.5
2016-Aug-24 23:33N 52°10' E 002°26'1714.8
2016-Aug-24 22:24N 52°27' E 002°27'4610.5
2016-Aug-24 18:00N 53°12' E 002°06'5512.1 010 / 81018.0 2.2 0.518.014.6
2016-Aug-24 13:29N 53°44' E 000°52'1213.4
2016-Aug-24 12:33N 53°41' E 000°32'1313.4
2016-Aug-24 11:33N 53°33' E 000°14'1111.3
2016-Aug-24 10:34N 53°36' W 000°04'6 5.8
2016-Aug-24 09:33N 53°39' W 000°12'0 0.0
2016-Aug-24 08:33N 53°39' W 000°12'0 0.0
2016-Aug-24 07:33N 53°39' W 000°12'0 0.0
2016-Aug-24 06:33N 53°39' W 000°12'0 0.0
2016-Aug-24 04:33N 53°39' W 000°12'0 0.0
2016-Aug-24 03:33N 53°39' W 000°12'0 0.0
2016-Aug-24 02:33N 53°39' W 000°12'0 0.0
2016-Aug-24 01:33N 53°39' W 000°12'0 0.0
2016-Aug-24 00:33N 53°39' W 000°12'0 0.0
2016-Aug-23 23:33N 53°39' W 000°12'0 0.0
2016-Aug-23 22:33N 53°39' W 000°12'0 0.0
2016-Aug-23 21:33N 53°39' W 000°12'0 0.0
2016-Aug-23 20:33N 53°39' W 000°12'0 0.0
2016-Aug-23 19:33N 53°39' W 000°12'0 0.0
2016-Aug-23 18:33N 53°39' W 000°12'0 0.0
2016-Aug-23 17:33N 53°39' W 000°12'0 0.0
2016-Aug-23 16:33N 53°39' W 000°12'0 0.0
2016-Aug-23 15:33N 53°39' W 000°12'0 0.0
2016-Aug-23 14:33N 53°39' W 000°12'0 0.0
2016-Aug-23 13:33N 53°39' W 000°12'0 0.0
2016-Aug-23 12:33N 53°39' W 000°12'0 0.0
2016-Aug-23 11:33N 53°39' W 000°12'0 0.0
2016-Aug-23 10:33N 53°39' W 000°12'0 0.0
2016-Aug-23 09:33N 53°39' W 000°12'0 0.0
2016-Aug-23 08:33N 53°39' W 000°12'0 0.0
2016-Aug-23 07:33N 53°39' W 000°12'0 0.0
2016-Aug-23 06:33N 53°39' W 000°12'0 0.0
2016-Aug-23 05:32N 53°39' W 000°12'0 0.0
2016-Aug-23 04:33N 53°39' W 000°12'0 0.0
2016-Aug-23 03:33N 53°39' W 000°12'0 0.0
2016-Aug-23 02:32N 53°39' W 000°12'0 0.0
2016-Aug-23 01:32N 53°39' W 000°12'0 0.0
2016-Aug-23 00:33N 53°39' W 000°12'0 0.0
2016-Aug-22 23:29N 53°39' W 000°12'0 0.0
2016-Aug-22 22:29N 53°39' W 000°12'0 0.0
2016-Aug-22 21:32N 53°39' W 000°12'0 0.0
2016-Aug-22 20:29N 53°39' W 000°12'0 0.0
2016-Aug-22 19:32N 53°39' W 000°12'0 0.0
2016-Aug-22 18:32N 53°39' W 000°12'0 0.0
2016-Aug-22 17:32N 53°39' W 000°12'0 0.0
2016-Aug-22 16:32N 53°39' W 000°12'0 0.0
2016-Aug-22 15:32N 53°39' W 000°12'0 0.0
2016-Aug-22 14:32N 53°39' W 000°12'0 0.0
2016-Aug-22 13:32N 53°39' W 000°12'0 0.0
2016-Aug-22 12:32N 53°39' W 000°12'0 0.0
2016-Aug-22 11:32N 53°39' W 000°12'0 0.0
2016-Aug-22 10:32N 53°39' W 000°12'0 0.0
2016-Aug-22 09:32N 53°39' W 000°12'2 1.8
2016-Aug-22 08:33N 53°38' W 000°10'8 8.0
2016-Aug-22 07:33N 53°36' E 000°03'9 9.0
2016-Aug-22 06:33N 53°33' E 000°17'7 5.8
2016-Aug-22 05:23N 53°37' E 000°27'0 0.0
2016-Aug-22 04:32N 53°37' E 000°27'0 0.2
2016-Aug-22 03:32N 53°37' E 000°27'0 0.1
2016-Aug-22 02:23N 53°37' E 000°27'0 0.0
2016-Aug-22 01:05N 53°37' E 000°27'0 0.0
2016-Aug-22 00:26N 53°37' E 000°27'0 0.0
2016-Aug-21 23:23N 53°37' E 000°27'0 0.0
2016-Aug-21 22:23N 53°37' E 000°27'0 0.1
2016-Aug-21 21:26N 53°37' E 000°27'0 0.2
2016-Aug-21 20:26N 53°37' E 000°27'0 0.0
2016-Aug-21 19:11N 53°37' E 000°27'0 0.0
2016-Aug-21 18:28N 53°37' E 000°27'2 3.8
2016-Aug-21 18:00N 53°36' E 000°24'2 3.3 270 / 171015.010.8 0.518.014.6
2016-Aug-21 17:25N 53°37' E 000°27'0 0.1
2016-Aug-21 16:28N 53°37' E 000°27'0 0.1
2016-Aug-21 15:28N 53°37' E 000°27'0 0.2
2016-Aug-21 14:31N 53°37' E 000°27'0 0.2
2016-Aug-21 13:33N 53°37' E 000°27'8 8.0
2016-Aug-21 12:33N 53°43' E 000°37'7811.8
2016-Aug-21 06:00N 53°42' E 002°48'103 9.8 260 / 211005.0 5.4 1.517.015.3
2016-Aug-20 19:33N 52°03' E 003°36'1111.3
2016-Aug-20 18:33N 52°03' E 003°54'7 6.8
2016-Aug-20 17:33N 51°59' E 004°04'3 2.5
2016-Aug-20 16:32N 51°57' E 004°06'0 0.0
2016-Aug-20 15:29N 51°57' E 004°06'0 0.0
2016-Aug-20 14:31N 51°57' E 004°06'0 0.0
2016-Aug-20 13:28N 51°57' E 004°06'0 0.0
2016-Aug-20 12:28N 51°57' E 004°06'0 0.0
2016-Aug-20 11:31N 51°57' E 004°06'0 0.0
2016-Aug-20 10:28N 51°57' E 004°06'0 0.0
2016-Aug-20 09:31N 51°57' E 004°06'0 0.0
2016-Aug-20 08:28N 51°57' E 004°06'0 0.0
2016-Aug-20 07:28N 51°57' E 004°06'0 0.0
2016-Aug-20 06:28N 51°57' E 004°06'0 0.0
2016-Aug-20 05:31N 51°57' E 004°06'0 0.0
2016-Aug-20 04:31N 51°57' E 004°06'0 0.0
2016-Aug-20 03:28N 51°57' E 004°06'0 0.0
2016-Aug-20 02:28N 51°57' E 004°06'0 0.0
2016-Aug-20 01:31N 51°57' E 004°06'0 0.0
2016-Aug-20 00:28N 51°57' E 004°06'0 0.0
2016-Aug-19 23:28N 51°57' E 004°06'0 0.0
2016-Aug-19 22:31N 51°57' E 004°06'0 0.0
2016-Aug-19 21:31N 51°57' E 004°06'0 0.0
2016-Aug-19 20:31N 51°57' E 004°06'0 0.0
2016-Aug-19 19:28N 51°57' E 004°06'0 0.0
2016-Aug-19 18:31N 51°57' E 004°06'0 0.0
2016-Aug-19 17:34N 51°57' E 004°06'0 0.0
2016-Aug-19 16:33N 51°57' E 004°06'0 0.0
2016-Aug-19 15:33N 51°57' E 004°06'0 0.0
2016-Aug-19 14:33N 51°57' E 004°06'0 0.0
2016-Aug-19 13:33N 51°57' E 004°06'0 0.0
2016-Aug-19 12:33N 51°57' E 004°06'0 0.0
2016-Aug-19 11:33N 51°57' E 004°06'0 0.0
2016-Aug-19 10:33N 51°57' E 004°06'0 0.0
2016-Aug-19 09:33N 51°57' E 004°06'0 0.0
2016-Aug-19 08:33N 51°57' E 004°06'0 0.0
2016-Aug-19 07:33N 51°57' E 004°06'0 0.0
2016-Aug-19 06:25N 51°57' E 004°06'0 0.0
2016-Aug-19 05:31N 51°57' E 004°06'0 0.0
2016-Aug-19 04:33N 51°57' E 004°06'0 0.0
2016-Aug-19 03:33N 51°57' E 004°06'0 0.0
2016-Aug-19 02:33N 51°57' E 004°06'0 0.0
2016-Aug-19 01:33N 51°57' E 004°06'0 0.0
2016-Aug-19 00:33N 51°57' E 004°06'0 0.0
2016-Aug-18 23:33N 51°57' E 004°06'0 0.0
2016-Aug-18 22:33N 51°57' E 004°06'0 0.0
2016-Aug-18 21:27N 51°57' E 004°06'0 0.0
2016-Aug-18 20:33N 51°57' E 004°06'0 0.0
2016-Aug-18 19:33N 51°57' E 004°06'0 0.0
2016-Aug-18 18:33N 51°57' E 004°06'0 0.0
2016-Aug-18 17:24N 51°57' E 004°06'0 0.0
2016-Aug-18 16:33N 51°57' E 004°06'0 0.0
2016-Aug-18 15:33N 51°57' E 004°06'0 0.0
2016-Aug-18 14:33N 51°57' E 004°06'0 0.0
2016-Aug-18 13:33N 51°57' E 004°06'0 0.0
2016-Aug-18 12:33N 51°57' E 004°06'0 0.0
2016-Aug-18 11:30N 51°57' E 004°06'0 0.0
2016-Aug-18 10:33N 51°57' E 004°06'0 0.0
2016-Aug-18 09:33N 51°57' E 004°06'0 0.0
2016-Aug-18 08:27N 51°57' E 004°06'0 0.0
2016-Aug-18 07:30N 51°57' E 004°06'0 0.0
2016-Aug-18 06:33N 51°57' E 004°06'0 0.0
2016-Aug-18 05:33N 51°57' E 004°06'0 0.0
2016-Aug-18 04:33N 51°57' E 004°06'0 0.0
2016-Aug-18 03:32N 51°57' E 004°06'0 0.0
2016-Aug-18 02:32N 51°57' E 004°06'0 0.1
2016-Aug-18 01:33N 51°57' E 004°05'6 5.8
2016-Aug-18 00:33N 51°60' E 003°57'1010.5
2016-Aug-17 23:33N 51°59' E 003°40'1211.6
2016-Aug-17 22:33N 51°55' E 003°23'1414.0
2016-Aug-17 21:34N 51°51' E 003°01'1413.5
2016-Aug-17 20:33N 51°47' E 002°40'1312.8
2016-Aug-17 19:34N 51°37' E 002°26'1312.7
2016-Aug-17 18:33N 51°28' E 002°12'1312.6
2016-Aug-17 17:33N 51°16' E 002°07'1313.3
2016-Aug-17 16:33N 51°09' E 001°50'1413.7
2016-Aug-17 15:33N 50°59' E 001°35'1414.0
2016-Aug-17 14:33N 50°46' E 001°23'1413.7
2016-Aug-17 13:34N 50°36' E 001°10'1413.6
2016-Aug-17 12:33N 50°29' E 000°52'1119.5
2016-Aug-17 12:00N 50°24' E 000°36'2 5.4 050 / 121012.0 2.2 0.519.017.4
2016-Aug-17 11:33N 50°25' E 000°33'1313.0
2016-Aug-17 10:33N 50°21' E 000°13'1413.6
2016-Aug-17 09:33N 50°18' W 000°08'1514.5
2016-Aug-17 08:33N 50°12' W 000°29'1515.4
2016-Aug-17 07:33N 50°04' W 000°49'1615.8
2016-Aug-17 06:33N 49°57' W 001°11'6 9.8
2016-Aug-17 06:00N 49°54' W 001°18'1124.2 090 / 111012.5 2.2 16.515.7
2016-Aug-17 05:33N 49°50' W 001°33'1110.6
2016-Aug-17 04:33N 49°50' W 001°50'1514.9
2016-Aug-17 03:33N 49°53' W 002°12'1313.2
2016-Aug-17 02:33N 49°52' W 002°33'1313.3
2016-Aug-17 01:33N 49°49' W 002°53'1313.1
2016-Aug-17 00:33N 49°46' W 003°12'5 9.5
2016-Aug-17 00:00N 49°42' W 003°18'920.6 120 / 151014.010.8 1.018.014.6
2016-Aug-16 23:34N 49°43' W 003°32'1313.3
2016-Aug-16 22:34N 49°39' W 003°52'1313.4
2016-Aug-16 21:34N 49°36' W 004°12'1313.5
2016-Aug-16 20:33N 49°32' W 004°32'1413.7
2016-Aug-16 19:33N 49°29' W 004°52'1413.9
2016-Aug-16 18:33N 49°26' W 005°13'713.0
2016-Aug-16 18:00N 49°24' W 005°24'715.0 100 / 221013.010.8 1.521.017.8
2016-Aug-16 17:33N 49°23' W 005°34'1313.5
2016-Aug-16 16:33N 49°19' W 005°54'1413.8
2016-Aug-16 15:33N 49°15' W 006°14'5314.9
2016-Aug-16 12:00N 48°42' W 007°18'3512.9 140 / 131013.010.8 1.021.019.4
2016-Aug-16 09:16N 48°24' W 008°03'12913.9
2016-Aug-16 00:00N 47°06' W 010°36'7813.0 140 / 71015.010.8 0.519.015.7
2016-Aug-15 18:00N 46°24' W 012°12'8614.3 100 / 91015.510.8 0.523.019.9
2016-Aug-15 12:00N 45°30' W 013°48'8013.3 180 / 41018.010.8 0.522.022.0
2016-Aug-15 06:00N 44°42' W 015°18'   140 / 121017.027.0 0.520.020.019.0
Track history (hours):
 
Tides and Currents Weather Stations Pressure Air Temp Water Temp Dewpoint Dewpoint Depression Visibility Wind Speed Wind Dir Waves Ship Positions

Maersk Peary

Owner: Maersk Line, Limited, Norfolk, VA. More information available from US FCC via Universal Licensing System and Coast Guard Vessel Documentation Center.

Last reported at 2016-Aug-25 03:34 UTC. Time now 2016-Aug-25 04:34 UTC.
Position N 51°16' E 001°48'.

Length 180 m; draft 8 m.

Type: Ship. MMSI: 368236000.

Date/timePositionNaut miles runAvg speedWind from/ knotsBaromVisibWave heightAir tempDewpointWater temp
2016-Aug-25 03:34N 51°16' E 001°48'1413.9
2016-Aug-25 02:34N 51°28' E 001°59'1615.5
2016-Aug-25 01:33N 51°40' E 002°15'5 8.2
2016-Aug-25 01:00N 51°36' E 002°12'2047.1 030 / 191016.0 5.4 0.516.012.4
2016-Aug-25 00:34N 51°55' E 002°25'1515.5
2016-Aug-24 23:33N 52°10' E 002°26'1714.8
2016-Aug-24 22:24N 52°27' E 002°27'4610.5
2016-Aug-24 18:00N 53°12' E 002°06'5512.1 010 / 81018.0 2.2 0.518.014.6
2016-Aug-24 13:29N 53°44' E 000°52'1213.4
2016-Aug-24 12:33N 53°41' E 000°32'1313.4
2016-Aug-24 11:33N 53°33' E 000°14'1111.3
2016-Aug-24 10:34N 53°36' W 000°04'6 5.8
2016-Aug-24 09:33N 53°39' W 000°12'0 0.0
2016-Aug-24 08:33N 53°39' W 000°12'0 0.0
2016-Aug-24 07:33N 53°39' W 000°12'0 0.0
2016-Aug-24 06:33N 53°39' W 000°12'0 0.0
2016-Aug-24 04:33N 53°39' W 000°12'0 0.0
2016-Aug-24 03:33N 53°39' W 000°12'0 0.0
2016-Aug-24 02:33N 53°39' W 000°12'0 0.0
2016-Aug-24 01:33N 53°39' W 000°12'0 0.0
2016-Aug-24 00:33N 53°39' W 000°12'0 0.0
2016-Aug-23 23:33N 53°39' W 000°12'0 0.0
2016-Aug-23 22:33N 53°39' W 000°12'0 0.0
2016-Aug-23 21:33N 53°39' W 000°12'0 0.0
2016-Aug-23 20:33N 53°39' W 000°12'0 0.0
2016-Aug-23 19:33N 53°39' W 000°12'0 0.0
2016-Aug-23 18:33N 53°39' W 000°12'0 0.0
2016-Aug-23 17:33N 53°39' W 000°12'0 0.0
2016-Aug-23 16:33N 53°39' W 000°12'0 0.0
2016-Aug-23 15:33N 53°39' W 000°12'0 0.0
2016-Aug-23 14:33N 53°39' W 000°12'0 0.0
2016-Aug-23 13:33N 53°39' W 000°12'0 0.0
2016-Aug-23 12:33N 53°39' W 000°12'0 0.0
2016-Aug-23 11:33N 53°39' W 000°12'0 0.0
2016-Aug-23 10:33N 53°39' W 000°12'0 0.0
2016-Aug-23 09:33N 53°39' W 000°12'0 0.0
2016-Aug-23 08:33N 53°39' W 000°12'0 0.0
2016-Aug-23 07:33N 53°39' W 000°12'0 0.0
2016-Aug-23 06:33N 53°39' W 000°12'0 0.0
2016-Aug-23 05:32N 53°39' W 000°12'0 0.0
2016-Aug-23 04:33N 53°39' W 000°12'0 0.0
2016-Aug-23 03:33N 53°39' W 000°12'0 0.0
2016-Aug-23 02:32N 53°39' W 000°12'0 0.0
2016-Aug-23 01:32N 53°39' W 000°12'0 0.0
2016-Aug-23 00:33N 53°39' W 000°12'0 0.0
2016-Aug-22 23:29N 53°39' W 000°12'0 0.0
2016-Aug-22 22:29N 53°39' W 000°12'0 0.0
2016-Aug-22 21:32N 53°39' W 000°12'0 0.0
2016-Aug-22 20:29N 53°39' W 000°12'0 0.0
2016-Aug-22 19:32N 53°39' W 000°12'0 0.0
2016-Aug-22 18:32N 53°39' W 000°12'0 0.0
2016-Aug-22 17:32N 53°39' W 000°12'0 0.0
2016-Aug-22 16:32N 53°39' W 000°12'0 0.0
2016-Aug-22 15:32N 53°39' W 000°12'0 0.0
2016-Aug-22 14:32N 53°39' W 000°12'0 0.0
2016-Aug-22 13:32N 53°39' W 000°12'0 0.0
2016-Aug-22 12:32N 53°39' W 000°12'0 0.0
2016-Aug-22 11:32N 53°39' W 000°12'0 0.0
2016-Aug-22 10:32N 53°39' W 000°12'0 0.0
2016-Aug-22 09:32N 53°39' W 000°12'2 1.8
2016-Aug-22 08:33N 53°38' W 000°10'8 8.0
2016-Aug-22 07:33N 53°36' E 000°03'9 9.0
2016-Aug-22 06:33N 53°33' E 000°17'7 5.8
2016-Aug-22 05:23N 53°37' E 000°27'0 0.0
2016-Aug-22 04:32N 53°37' E 000°27'0 0.2
2016-Aug-22 03:32N 53°37' E 000°27'0 0.1
2016-Aug-22 02:23N 53°37' E 000°27'0 0.0
2016-Aug-22 01:05N 53°37' E 000°27'0 0.0
2016-Aug-22 00:26N 53°37' E 000°27'0 0.0
2016-Aug-21 23:23N 53°37' E 000°27'0 0.0
2016-Aug-21 22:23N 53°37' E 000°27'0 0.1
2016-Aug-21 21:26N 53°37' E 000°27'0 0.2
2016-Aug-21 20:26N 53°37' E 000°27'0 0.0
2016-Aug-21 19:11N 53°37' E 000°27'0 0.0
2016-Aug-21 18:28N 53°37' E 000°27'2 3.8
2016-Aug-21 18:00N 53°36' E 000°24'2 3.3 270 / 171015.010.8 0.518.014.6
2016-Aug-21 17:25N 53°37' E 000°27'0 0.1
2016-Aug-21 16:28N 53°37' E 000°27'0 0.1
2016-Aug-21 15:28N 53°37' E 000°27'0 0.2
2016-Aug-21 14:31N 53°37' E 000°27'0 0.2
2016-Aug-21 13:33N 53°37' E 000°27'8 8.0
2016-Aug-21 12:33N 53°43' E 000°37'7811.8
2016-Aug-21 06:00N 53°42' E 002°48'103 9.8 260 / 211005.0 5.4 1.517.015.3
2016-Aug-20 19:33N 52°03' E 003°36'1111.3
2016-Aug-20 18:33N 52°03' E 003°54'7 6.8
2016-Aug-20 17:33N 51°59' E 004°04'3 2.5
2016-Aug-20 16:32N 51°57' E 004°06'0 0.0
2016-Aug-20 15:29N 51°57' E 004°06'0 0.0
2016-Aug-20 14:31N 51°57' E 004°06'0 0.0
2016-Aug-20 13:28N 51°57' E 004°06'0 0.0
2016-Aug-20 12:28N 51°57' E 004°06'0 0.0
2016-Aug-20 11:31N 51°57' E 004°06'0 0.0
2016-Aug-20 10:28N 51°57' E 004°06'0 0.0
2016-Aug-20 09:31N 51°57' E 004°06'0 0.0
2016-Aug-20 08:28N 51°57' E 004°06'0 0.0
2016-Aug-20 07:28N 51°57' E 004°06'0 0.0
2016-Aug-20 06:28N 51°57' E 004°06'0 0.0
2016-Aug-20 05:31N 51°57' E 004°06'0 0.0
2016-Aug-20 04:31N 51°57' E 004°06'0 0.0
2016-Aug-20 03:28N 51°57' E 004°06'0 0.0
2016-Aug-20 02:28N 51°57' E 004°06'0 0.0
2016-Aug-20 01:31N 51°57' E 004°06'0 0.0
2016-Aug-20 00:28N 51°57' E 004°06'0 0.0
2016-Aug-19 23:28N 51°57' E 004°06'0 0.0
2016-Aug-19 22:31N 51°57' E 004°06'0 0.0
2016-Aug-19 21:31N 51°57' E 004°06'0 0.0
2016-Aug-19 20:31N 51°57' E 004°06'0 0.0
2016-Aug-19 19:28N 51°57' E 004°06'0 0.0
2016-Aug-19 18:31N 51°57' E 004°06'0 0.0
2016-Aug-19 17:34N 51°57' E 004°06'0 0.0
2016-Aug-19 16:33N 51°57' E 004°06'0 0.0
2016-Aug-19 15:33N 51°57' E 004°06'0 0.0
2016-Aug-19 14:33N 51°57' E 004°06'0 0.0
2016-Aug-19 13:33N 51°57' E 004°06'0 0.0
2016-Aug-19 12:33N 51°57' E 004°06'0 0.0
2016-Aug-19 11:33N 51°57' E 004°06'0 0.0
2016-Aug-19 10:33N 51°57' E 004°06'0 0.0
2016-Aug-19 09:33N 51°57' E 004°06'0 0.0
2016-Aug-19 08:33N 51°57' E 004°06'0 0.0
2016-Aug-19 07:33N 51°57' E 004°06'0 0.0
2016-Aug-19 06:25N 51°57' E 004°06'0 0.0
2016-Aug-19 05:31N 51°57' E 004°06'0 0.0
2016-Aug-19 04:33N 51°57' E 004°06'0 0.0
2016-Aug-19 03:33N 51°57' E 004°06'0 0.0
2016-Aug-19 02:33N 51°57' E 004°06'0 0.0
2016-Aug-19 01:33N 51°57' E 004°06'0 0.0
2016-Aug-19 00:33N 51°57' E 004°06'0 0.0
2016-Aug-18 23:33N 51°57' E 004°06'0 0.0
2016-Aug-18 22:33N 51°57' E 004°06'0 0.0
2016-Aug-18 21:27N 51°57' E 004°06'0 0.0
2016-Aug-18 20:33N 51°57' E 004°06'0 0.0
2016-Aug-18 19:33N 51°57' E 004°06'0 0.0
2016-Aug-18 18:33N 51°57' E 004°06'0 0.0
2016-Aug-18 17:24N 51°57' E 004°06'0 0.0
2016-Aug-18 16:33N 51°57' E 004°06'0 0.0
2016-Aug-18 15:33N 51°57' E 004°06'0 0.0
2016-Aug-18 14:33N 51°57' E 004°06'0 0.0
2016-Aug-18 13:33N 51°57' E 004°06'0 0.0
2016-Aug-18 12:33N 51°57' E 004°06'0 0.0
2016-Aug-18 11:30N 51°57' E 004°06'0 0.0
2016-Aug-18 10:33N 51°57' E 004°06'0 0.0
2016-Aug-18 09:33N 51°57' E 004°06'0 0.0
2016-Aug-18 08:27N 51°57' E 004°06'0 0.0
2016-Aug-18 07:30N 51°57' E 004°06'0 0.0
2016-Aug-18 06:33N 51°57' E 004°06'0 0.0
2016-Aug-18 05:33N 51°57' E 004°06'0 0.0
2016-Aug-18 04:33N 51°57' E 004°06'0 0.0
2016-Aug-18 03:32N 51°57' E 004°06'0 0.0
2016-Aug-18 02:32N 51°57' E 004°06'0 0.1
2016-Aug-18 01:33N 51°57' E 004°05'6 5.8
2016-Aug-18 00:33N 51°60' E 003°57'1010.5
2016-Aug-17 23:33N 51°59' E 003°40'1211.6
2016-Aug-17 22:33N 51°55' E 003°23'1414.0
2016-Aug-17 21:34N 51°51' E 003°01'1413.5
2016-Aug-17 20:33N 51°47' E 002°40'1312.8
2016-Aug-17 19:34N 51°37' E 002°26'1312.7
2016-Aug-17 18:33N 51°28' E 002°12'1312.6
2016-Aug-17 17:33N 51°16' E 002°07'1313.3
2016-Aug-17 16:33N 51°09' E 001°50'1413.7
2016-Aug-17 15:33N 50°59' E 001°35'1414.0
2016-Aug-17 14:33N 50°46' E 001°23'1413.7
2016-Aug-17 13:34N 50°36' E 001°10'1413.6
2016-Aug-17 12:33N 50°29' E 000°52'1119.5
2016-Aug-17 12:00N 50°24' E 000°36'2 5.4 050 / 121012.0 2.2 0.519.017.4
2016-Aug-17 11:33N 50°25' E 000°33'1313.0
2016-Aug-17 10:33N 50°21' E 000°13'1413.6
2016-Aug-17 09:33N 50°18' W 000°08'1514.5
2016-Aug-17 08:33N 50°12' W 000°29'1515.4
2016-Aug-17 07:33N 50°04' W 000°49'1615.8
2016-Aug-17 06:33N 49°57' W 001°11'6 9.8
2016-Aug-17 06:00N 49°54' W 001°18'1124.2 090 / 111012.5 2.2 16.515.7
2016-Aug-17 05:33N 49°50' W 001°33'1110.6
2016-Aug-17 04:33N 49°50' W 001°50'1514.9
2016-Aug-17 03:33N 49°53' W 002°12'1313.2
2016-Aug-17 02:33N 49°52' W 002°33'1313.3
2016-Aug-17 01:33N 49°49' W 002°53'1313.1
2016-Aug-17 00:33N 49°46' W 003°12'5 9.5
2016-Aug-17 00:00N 49°42' W 003°18'920.6 120 / 151014.010.8 1.018.014.6
2016-Aug-16 23:34N 49°43' W 003°32'1313.3
2016-Aug-16 22:34N 49°39' W 003°52'1313.4
2016-Aug-16 21:34N 49°36' W 004°12'1313.5
2016-Aug-16 20:33N 49°32' W 004°32'1413.7
2016-Aug-16 19:33N 49°29' W 004°52'1413.9
2016-Aug-16 18:33N 49°26' W 005°13'713.0
2016-Aug-16 18:00N 49°24' W 005°24'715.0 100 / 221013.010.8 1.521.017.8
2016-Aug-16 17:33N 49°23' W 005°34'1313.5
2016-Aug-16 16:33N 49°19' W 005°54'1413.8
2016-Aug-16 15:33N 49°15' W 006°14'5314.9
2016-Aug-16 12:00N 48°42' W 007°18'3512.9 140 / 131013.010.8 1.021.019.4
2016-Aug-16 09:16N 48°24' W 008°03'12913.9
2016-Aug-16 00:00N 47°06' W 010°36'7813.0 140 / 71015.010.8 0.519.015.7
2016-Aug-15 18:00N 46°24' W 012°12'8614.3 100 / 91015.510.8 0.523.019.9
2016-Aug-15 12:00N 45°30' W 013°48'8013.3 180 / 41018.010.8 0.522.022.0
2016-Aug-15 06:00N 44°42' W 015°18'   140 / 121017.027.0 0.520.020.019.0

Dump ship's entire track history